Time;durP1;ratioP1;P1;durP2;ratioP2;P2;SDS_P1;SDS_P2;PMS_P1;PMS_P2;Temp;Humidity;BMP_temperature;BMP_pressure;BME280_temperature;BME280_humidity;BME280_pressure;Samples;Min_cycle;Max_cycle;Signal;HPM_P1;HPM_P2
2023/11/16 00:00:42;;;;;;;0.30;0.30;;;10.30;99.90;;;;;;5065071;28;20218;-91
2023/11/16 00:03:10;;;;;;;1.03;0.43;;;10.30;99.90;;;;;;5046626;28;20952;-93
2023/11/16 00:05:36;;;;;;;0.20;0.20;;;10.20;99.90;;;;;;5046575;28;20312;-91
2023/11/16 00:08:07;;;;;;;0.20;0.20;;;10.20;99.90;;;;;;5046572;28;20307;-90
2023/11/16 00:10:36;;;;;;;0.20;0.20;;;10.30;99.90;;;;;;5046018;28;20205;-92
2023/11/16 00:13:03;;;;;;;0.10;0.10;;;10.30;99.90;;;;;;5046605;28;20225;-91
2023/11/16 00:15:32;;;;;;;0.10;0.10;;;10.20;99.90;;;;;;5036943;28;20192;-89
2023/11/16 00:17:58;;;;;;;0.20;0.20;;;10.10;99.90;;;;;;5063627;28;20182;-92
2023/11/16 00:20:26;;;;;;;0.13;0.13;;;10.10;99.90;;;;;;5029076;28;20217;-91
2023/11/16 00:22:55;;;;;;;0.17;0.17;;;10.10;99.90;;;;;;5046646;28;20267;-90
2023/11/16 00:25:20;;;;;;;0.10;0.10;;;10.10;99.90;;;;;;5047104;28;20229;-93
2023/11/16 00:27:46;;;;;;;2.10;0.83;;;10.20;99.90;;;;;;5047126;28;20220;-92
2023/11/16 00:30:13;;;;;;;0.20;0.20;;;10.10;99.90;;;;;;5046762;28;21069;-92
2023/11/16 00:32:39;;;;;;;0.10;0.10;;;10.10;99.90;;;;;;5047772;28;20304;-91
2023/11/16 00:35:06;;;;;;;0.10;0.10;;;10.00;99.90;;;;;;5032831;28;20225;-92
2023/11/16 00:37:37;;;;;;;0.20;0.20;;;10.00;99.90;;;;;;5050202;28;20259;-92
2023/11/16 00:40:04;;;;;;;0.10;0.10;;;10.10;99.90;;;;;;5033474;28;20217;-93
2023/11/16 00:42:30;;;;;;;0.13;0.13;;;10.20;99.90;;;;;;5039488;28;20235;-91
2023/11/16 00:44:56;;;;;;;0.40;0.20;;;10.20;99.90;;;;;;5050395;28;20296;-91
2023/11/16 00:47:22;;;;;;;0.10;0.10;;;10.20;99.90;;;;;;5047193;28;20226;-91
2023/11/16 00:49:48;;;;;;;0.10;0.10;;;10.10;99.90;;;;;;5050516;28;20213;-91
2023/11/16 00:52:19;;;;;;;1.50;0.40;;;10.10;99.90;;;;;;5068290;28;20292;-92
2023/11/16 00:54:48;;;;;;;0.30;0.30;;;10.20;99.90;;;;;;5067913;28;20213;-94
2023/11/16 00:57:15;;;;;;;0.20;0.20;;;10.20;99.90;;;;;;5050066;28;20212;-91
2023/11/16 00:59:41;;;;;;;0.20;0.20;;;10.00;99.90;;;;;;5050025;28;20765;-90
2023/11/16 01:02:08;;;;;;;0.10;0.10;;;10.00;99.90;;;;;;5049979;28;20213;-91
2023/11/16 01:04:34;;;;;;;0.10;0.10;;;10.00;99.90;;;;;;5049466;28;20229;-91
2023/11/16 01:07:00;;;;;;;0.20;0.20;;;10.00;99.90;;;;;;5067139;28;20217;-92
2023/11/16 01:09:35;;;;;;;0.20;0.20;;;10.00;99.90;;;;;;5049701;28;20286;-92
2023/11/16 01:12:07;;;;;;;0.10;0.10;;;10.10;99.90;;;;;;5049687;28;20185;-92
2023/11/16 01:14:32;;;;;;;0.20;0.20;;;10.00;99.90;;;;;;5049656;28;20291;-90
2023/11/16 01:17:07;;;;;;;0.20;0.20;;;10.10;99.90;;;;;;5049704;28;20216;-91
2023/11/16 01:19:34;;;;;;;0.20;0.20;;;10.10;99.90;;;;;;5050050;28;20227;-91
2023/11/16 01:22:00;;;;;;;0.20;0.20;;;10.00;99.90;;;;;;5049022;28;20217;-92
2023/11/16 01:24:34;;;;;;;0.10;0.10;;;9.90;99.90;;;;;;5033222;28;20209;-91
2023/11/16 01:27:13;;;;;;;1.37;0.30;;;9.80;99.90;;;;;;5049961;28;20249;-90
2023/11/16 01:29:39;;;;;;;0.20;0.20;;;9.70;99.90;;;;;;5068123;28;20209;-91
2023/11/16 01:32:05;;;;;;;0.10;0.10;;;9.60;99.90;;;;;;5040721;28;20232;-91
2023/11/16 01:34:31;;;;;;;7.83;0.70;;;9.50;99.90;;;;;;5033123;28;20732;-93
2023/11/16 01:36:57;;;;;;;0.20;0.20;;;9.50;99.90;;;;;;5047731;28;20217;-89
2023/11/16 01:39:25;;;;;;;0.40;0.40;;;9.50;99.90;;;;;;5029020;28;20196;-93
2023/11/16 01:41:51;;;;;;;5.40;1.17;;;9.40;99.90;;;;;;5033237;28;20192;-91
2023/11/16 01:44:16;;;;;;;0.10;0.10;;;9.40;99.90;;;;;;5031449;28;20233;-93
2023/11/16 01:46:42;;;;;;;0.10;0.10;;;9.30;99.90;;;;;;5015891;28;21006;-91
2023/11/16 01:49:09;;;;;;;0.50;0.50;;;9.40;99.90;;;;;;5032028;28;20232;-91
2023/11/16 01:51:37;;;;;;;0.50;0.50;;;9.30;99.90;;;;;;5048392;28;20255;-92
2023/11/16 01:54:05;;;;;;;0.10;0.10;;;9.30;99.90;;;;;;5032940;28;21047;-91
2023/11/16 01:56:36;;;;;;;0.23;0.23;;;9.20;99.90;;;;;;5065004;28;20210;-91
2023/11/16 01:59:03;;;;;;;0.20;0.20;;;9.20;99.90;;;;;;5066852;28;20556;-91
2023/11/16 02:01:33;;;;;;;0.20;0.20;;;9.20;99.90;;;;;;5065476;28;20323;-91
2023/11/16 02:04:04;;;;;;;0.30;0.30;;;9.20;99.90;;;;;;5048642;28;20235;-91
2023/11/16 02:06:30;;;;;;;0.23;0.23;;;9.20;99.90;;;;;;5048837;28;20192;-91
2023/11/16 02:08:56;;;;;;;0.50;0.50;;;9.10;99.90;;;;;;5049504;28;20177;-93
2023/11/16 02:11:27;;;;;;;0.20;0.20;;;9.10;99.90;;;;;;5047471;28;20245;-92
2023/11/16 02:13:53;;;;;;;0.20;0.20;;;9.20;99.90;;;;;;5065179;28;20689;-92
2023/11/16 02:16:19;;;;;;;0.10;0.10;;;9.20;99.90;;;;;;5047965;28;20740;-92
2023/11/16 02:18:45;;;;;;;0.10;0.10;;;9.20;99.90;;;;;;5047234;28;20232;-92
2023/11/16 02:21:13;;;;;;;0.60;0.60;;;9.20;99.90;;;;;;5066638;28;20189;-93
2023/11/16 02:23:43;;;;;;;2.73;0.60;;;9.30;99.90;;;;;;5065882;28;20891;-92
2023/11/16 02:26:09;;;;;;;0.20;0.20;;;9.30;99.90;;;;;;5047990;28;20214;-90
2023/11/16 02:28:36;;;;;;;0.30;0.30;;;9.40;99.90;;;;;;5065615;28;20571;-91
2023/11/16 02:31:02;;;;;;;2.63;0.40;;;9.40;99.90;;;;;;5044951;28;20217;-92
2023/11/16 02:33:28;;;;;;;3.60;1.10;;;9.40;99.90;;;;;;5047283;28;20188;-91
2023/11/16 02:35:56;;;;;;;3.57;3.27;;;9.40;99.90;;;;;;5048594;28;20209;-89
2023/11/16 02:38:22;;;;;;;0.30;0.30;;;9.40;99.90;;;;;;5047496;28;20216;-91
2023/11/16 02:40:51;;;;;;;0.30;0.30;;;9.50;99.90;;;;;;5065749;28;20931;-90
2023/11/16 02:43:18;;;;;;;22.87;2.13;;;9.50;99.90;;;;;;5046991;28;20282;-89
2023/11/16 02:45:44;;;;;;;0.60;0.60;;;9.60;99.90;;;;;;5063422;28;20221;-91
2023/11/16 02:48:14;;;;;;;0.10;0.10;;;9.70;99.90;;;;;;5048576;28;20199;-92
2023/11/16 02:50:41;;;;;;;0.20;0.20;;;9.70;99.90;;;;;;5056138;28;20263;-92
2023/11/16 02:53:09;;;;;;;0.30;0.30;;;9.70;99.90;;;;;;5031283;28;20227;-92
2023/11/16 02:55:35;;;;;;;0.40;0.40;;;9.60;99.90;;;;;;5031426;28;20217;-91
2023/11/16 02:58:09;;;;;;;0.10;0.10;;;9.50;99.90;;;;;;5047141;28;20251;-91
2023/11/16 03:00:35;;;;;;;0.20;0.20;;;9.40;99.90;;;;;;5031783;28;20240;-92
2023/11/16 03:03:03;;;;;;;0.20;0.20;;;9.40;99.90;;;;;;5066328;28;20189;-91
2023/11/16 03:05:32;;;;;;;0.30;0.30;;;9.40;99.90;;;;;;5065472;28;20223;-91
2023/11/16 03:08:02;;;;;;;1.20;1.20;;;9.50;99.90;;;;;;5037730;28;20227;-90
2023/11/16 03:10:28;;;;;;;0.13;0.13;;;9.50;99.90;;;;;;5047134;28;20228;-92
2023/11/16 03:12:55;;;;;;;0.10;0.10;;;9.60;99.90;;;;;;5047205;28;20220;-93
2023/11/16 03:15:20;;;;;;;0.10;0.10;;;9.50;99.90;;;;;;5047036;28;20189;-92
2023/11/16 03:17:46;;;;;;;0.10;0.10;;;9.50;99.90;;;;;;5031619;28;20189;-93
2023/11/16 03:20:17;;;;;;;0.30;0.30;;;9.40;99.90;;;;;;5030978;28;20217;-91
2023/11/16 03:22:44;;;;;;;0.27;0.27;;;9.20;99.90;;;;;;5029536;28;20209;-92
2023/11/16 03:25:10;;;;;;;0.10;0.10;;;9.20;99.90;;;;;;5020666;28;20237;-92
2023/11/16 03:27:36;;;;;;;2.53;0.40;;;9.10;99.90;;;;;;5030975;28;20213;-92
2023/11/16 03:30:06;;;;;;;0.10;0.10;;;9.10;99.90;;;;;;5064611;28;20254;-91
2023/11/16 03:32:31;;;;;;;0.20;0.20;;;9.00;99.90;;;;;;5046063;28;20698;-91
2023/11/16 03:34:57;;;;;;;2.07;0.80;;;8.90;99.90;;;;;;5064128;28;20710;-91
2023/11/16 03:37:23;;;;;;;0.20;0.20;;;8.90;99.90;;;;;;5045661;28;20212;-91
2023/11/16 03:39:49;;;;;;;5.63;0.40;;;8.90;99.90;;;;;;5045565;28;20267;-90
2023/11/16 03:42:18;;;;;;;0.10;0.10;;;8.80;99.90;;;;;;5062231;28;20333;-91
2023/11/16 03:44:44;;;;;;;0.40;0.30;;;8.70;99.90;;;;;;5065239;28;20201;-92
2023/11/16 03:47:10;;;;;;;0.20;0.20;;;8.60;99.90;;;;;;5045631;28;20236;-92
2023/11/16 03:49:36;;;;;;;0.20;0.20;;;8.60;99.90;;;;;;5047048;28;20595;-92
2023/11/16 03:52:01;;;;;;;0.33;0.33;;;8.60;99.90;;;;;;5047229;28;20996;-92
2023/11/16 03:54:27;;;;;;;0.10;0.10;;;8.50;99.90;;;;;;5029708;28;20197;-91
2023/11/16 03:56:54;;;;;;;0.20;0.20;;;8.50;99.90;;;;;;5030918;28;20250;-92
2023/11/16 03:59:21;;;;;;;5.93;0.63;;;8.40;99.90;;;;;;5047131;28;20217;-91
2023/11/16 04:01:51;;;;;;;0.57;0.57;;;8.40;99.90;;;;;;5046127;28;20754;-88
2023/11/16 04:04:17;;;;;;;0.17;0.17;;;8.40;99.90;;;;;;5047350;28;20285;-90
2023/11/16 04:06:48;;;;;;;4.03;0.70;;;8.30;99.90;;;;;;5063157;28;20216;-89
2023/11/16 04:09:14;;;;;;;9.70;0.43;;;8.30;99.90;;;;;;5050958;28;20208;-89
2023/11/16 04:11:44;;;;;;;0.37;0.37;;;8.30;99.90;;;;;;5051580;28;20178;-89
2023/11/16 04:14:10;;;;;;;3.13;0.53;;;8.30;99.90;;;;;;5049826;28;20217;-90
2023/11/16 04:16:38;;;;;;;0.20;0.20;;;8.30;99.90;;;;;;5048919;28;20270;-89
2023/11/16 04:19:04;;;;;;;0.47;0.20;;;8.20;99.90;;;;;;5051146;28;20220;-89
2023/11/16 04:21:31;;;;;;;0.17;0.17;;;8.10;99.90;;;;;;5049963;28;20192;-89
2023/11/16 04:23:57;;;;;;;0.20;0.20;;;8.00;99.90;;;;;;5050337;28;20213;-90
2023/11/16 04:26:28;;;;;;;0.20;0.20;;;7.90;99.90;;;;;;5047710;28;20225;-89
2023/11/16 04:28:56;;;;;;;0.20;0.20;;;7.90;99.90;;;;;;5050161;28;20221;-89
2023/11/16 04:31:26;;;;;;;0.30;0.30;;;7.90;99.90;;;;;;5068305;28;20220;-89
2023/11/16 04:33:54;;;;;;;0.17;0.17;;;7.90;99.90;;;;;;5068275;28;20213;-90
2023/11/16 04:36:24;;;;;;;29.83;0.70;;;7.80;99.90;;;;;;5067720;28;20181;-90
2023/11/16 04:38:51;;;;;;;0.20;0.20;;;7.70;99.90;;;;;;5034074;28;20182;-90
2023/11/16 04:41:18;;;;;;;0.20;0.20;;;7.70;99.90;;;;;;5067315;28;20221;-91
2023/11/16 04:43:44;;;;;;;0.30;0.30;;;7.60;99.90;;;;;;5049667;28;20564;-89
2023/11/16 04:46:11;;;;;;;0.20;0.20;;;7.60;99.90;;;;;;5049996;28;20245;-90
2023/11/16 04:48:41;;;;;;;0.10;0.10;;;7.50;99.90;;;;;;5068136;28;20221;-91
2023/11/16 04:51:09;;;;;;;0.13;0.13;;;7.40;99.90;;;;;;5050001;28;20193;-91
2023/11/16 04:53:36;;;;;;;0.20;0.20;;;7.40;99.90;;;;;;5067480;28;20221;-91
2023/11/16 04:56:06;;;;;;;0.40;0.40;;;7.40;99.90;;;;;;5050566;28;20792;-90
2023/11/16 04:58:32;;;;;;;1.43;1.33;;;7.40;99.90;;;;;;5049915;28;20216;-90
2023/11/16 05:00:58;;;;;;;1.13;1.10;;;7.40;99.90;;;;;;5032600;28;20569;-91
2023/11/16 05:03:33;;;;;;;0.23;0.23;;;7.40;99.90;;;;;;5025520;28;20238;-90
2023/11/16 05:06:01;;;;;;;0.30;0.30;;;7.40;99.90;;;;;;5047188;28;20239;-91
2023/11/16 05:08:26;;;;;;;0.40;0.40;;;7.40;99.90;;;;;;5030592;28;20217;-91
2023/11/16 05:10:52;;;;;;;0.20;0.20;;;7.40;99.90;;;;;;5049272;28;20225;-91
2023/11/16 05:13:21;;;;;;;0.20;0.20;;;7.50;99.90;;;;;;5032755;28;20703;-90
2023/11/16 05:15:48;;;;;;;0.30;0.30;;;7.50;99.90;;;;;;5032092;28;20216;-91
2023/11/16 05:18:15;;;;;;;0.20;0.20;;;7.50;99.90;;;;;;5044474;28;20178;-90
2023/11/16 05:20:44;;;;;;;0.30;0.30;;;7.40;99.90;;;;;;5043790;28;20189;-92
2023/11/16 05:23:10;;;;;;;0.23;0.23;;;7.40;99.90;;;;;;5044845;28;20217;-91
2023/11/16 05:25:36;;;;;;;0.33;0.33;;;7.40;99.90;;;;;;5062022;28;20228;-91
2023/11/16 05:28:06;;;;;;;0.30;0.30;;;7.50;99.90;;;;;;5045419;28;20240;-91
2023/11/16 05:30:33;;;;;;;0.20;0.20;;;7.50;99.90;;;;;;5028275;28;20192;-90
2023/11/16 05:33:00;;;;;;;0.20;0.20;;;7.50;99.90;;;;;;5045371;28;20559;-91
2023/11/16 05:35:27;;;;;;;0.40;0.40;;;7.50;99.90;;;;;;5045142;28;20230;-91
2023/11/16 05:37:52;;;;;;;0.20;0.20;;;7.60;99.90;;;;;;5047186;28;21110;-90
2023/11/16 05:40:18;;;;;;;0.80;0.80;;;7.70;99.90;;;;;;5048566;28;20224;-90
2023/11/16 05:42:44;;;;;;;0.20;0.20;;;7.70;99.90;;;;;;5048895;28;20699;-91
2023/11/16 05:45:12;;;;;;;0.30;0.30;;;7.70;99.90;;;;;;5049476;28;20227;-91
2023/11/16 05:47:45;;;;;;;0.30;0.30;;;7.80;99.90;;;;;;5032888;28;20214;-91
2023/11/16 05:50:11;;;;;;;0.20;0.20;;;7.90;99.90;;;;;;5055934;28;20221;-91
2023/11/16 05:52:37;;;;;;;0.23;0.23;;;8.00;99.90;;;;;;5065844;28;20286;-90
2023/11/16 05:55:04;;;;;;;0.27;0.27;;;8.00;99.90;;;;;;5032037;28;20216;-91
2023/11/16 05:57:30;;;;;;;0.50;0.50;;;8.20;99.90;;;;;;5049000;28;20321;-90
2023/11/16 05:59:56;;;;;;;0.20;0.20;;;8.20;99.90;;;;;;5047265;28;20679;-92
2023/11/16 06:02:22;;;;;;;0.60;0.60;;;8.20;99.90;;;;;;5047731;28;20225;-92
2023/11/16 06:04:50;;;;;;;0.30;0.30;;;8.20;99.90;;;;;;5062851;28;20236;-94
2023/11/16 06:07:16;;;;;;;0.67;0.67;;;8.10;99.90;;;;;;5051681;28;20225;-91
2023/11/16 06:09:45;;;;;;;0.33;0.33;;;8.10;99.90;;;;;;5043999;28;20221;-94
2023/11/16 06:12:14;;;;;;;0.20;0.20;;;8.10;99.90;;;;;;5045379;28;20186;-93
2023/11/16 06:14:52;;;;;;;0.63;0.63;;;7.90;99.90;;;;;;5044736;28;20216;-91
2023/11/16 06:17:18;;;;;;;0.30;0.30;;;7.80;99.90;;;;;;5044251;28;20624;-91
2023/11/16 06:19:44;;;;;;;0.50;0.50;;;7.70;99.90;;;;;;5026937;28;20213;-91
2023/11/16 06:22:10;;;;;;;1.60;0.40;;;7.70;99.90;;;;;;5043734;28;20243;-91
2023/11/16 06:24:36;;;;;;;6.60;0.70;;;7.70;99.90;;;;;;5043876;28;20348;-92
2023/11/16 06:27:04;;;;;;;0.23;0.23;;;7.60;99.90;;;;;;5046810;28;20193;-91
2023/11/16 06:29:33;;;;;;;0.67;0.67;;;7.60;99.90;;;;;;5047887;28;20213;-94
2023/11/16 06:32:05;;;;;;;0.20;0.20;;;7.50;99.90;;;;;;5065199;28;20225;-92
2023/11/16 06:34:34;;;;;;;11.30;0.53;;;7.50;99.90;;;;;;5064280;28;20224;-91
2023/11/16 06:37:04;;;;;;;0.20;0.20;;;7.40;99.90;;;;;;5065811;28;20225;-92
2023/11/16 06:39:29;;;;;;;0.17;0.17;;;7.30;99.90;;;;;;5047728;28;20194;-92
2023/11/16 06:41:57;;;;;;;0.30;0.30;;;7.20;99.90;;;;;;5048888;28;21089;-93
2023/11/16 06:44:22;;;;;;;0.50;0.50;;;7.00;99.90;;;;;;5065776;28;20225;-91
2023/11/16 06:46:52;;;;;;;0.50;0.50;;;6.70;99.90;;;;;;5048801;28;20224;-91
2023/11/16 06:49:19;;;;;;;0.23;0.23;;;6.50;99.90;;;;;;5031870;28;20294;-94
2023/11/16 06:51:44;;;;;;;0.33;0.33;;;6.40;99.90;;;;;;5029184;28;20216;-91
2023/11/16 06:54:12;;;;;;;0.93;0.70;;;6.40;99.90;;;;;;5047558;28;20201;-91
2023/11/16 06:56:40;;;;;;;0.30;0.30;;;6.40;99.90;;;;;;5065474;28;20205;-92
2023/11/16 06:59:07;;;;;;;0.20;0.20;;;6.50;99.90;;;;;;5047921;28;20274;-91
2023/11/16 07:01:35;;;;;;;3.07;0.67;;;6.70;99.90;;;;;;5030841;28;20223;-92
2023/11/16 07:04:05;;;;;;;7.47;1.33;;;6.80;99.90;;;;;;5039157;28;20357;-92
2023/11/16 07:06:31;;;;;;;0.30;0.30;;;6.90;99.90;;;;;;5064379;28;20949;-92
2023/11/16 07:08:57;;;;;;;2.23;2.10;;;6.90;99.90;;;;;;5048172;28;20256;-91
2023/11/16 07:11:23;;;;;;;0.50;0.50;;;7.00;99.90;;;;;;5037618;28;20320;-91
2023/11/16 07:13:52;;;;;;;0.27;0.27;;;7.10;99.90;;;;;;5031463;28;20315;-92
2023/11/16 07:16:22;;;;;;;1.30;0.63;;;7.40;99.90;;;;;;5047687;28;20700;-91
2023/11/16 07:18:52;;;;;;;0.50;0.40;;;7.50;99.90;;;;;;5036936;28;20222;-93
2023/11/16 07:21:21;;;;;;;0.30;0.30;;;7.60;99.90;;;;;;5036250;28;20205;-90
2023/11/16 07:23:59;;;;;;;0.30;0.30;;;7.60;99.90;;;;;;5032336;28;20258;-91
2023/11/16 07:26:27;;;;;;;0.30;0.30;;;7.70;99.90;;;;;;5023858;28;20225;-94
2023/11/16 07:28:53;;;;;;;4.23;1.80;;;8.20;99.90;;;;;;5046233;28;20270;-93
2023/11/16 07:31:21;;;;;;;0.70;0.70;;;8.50;99.90;;;;;;5047180;28;20225;-94
2023/11/16 07:33:52;;;;;;;0.63;0.47;;;8.50;99.90;;;;;;5046910;28;20217;-94
2023/11/16 07:36:27;;;;;;;0.87;0.87;;;8.80;99.90;;;;;;5045444;28;20193;-94
2023/11/16 07:38:55;;;;;;;0.60;0.60;;;9.10;99.90;;;;;;5046096;28;20173;-93
2023/11/16 07:41:21;;;;;;;0.50;0.50;;;9.50;99.90;;;;;;5064045;28;20223;-92
2023/11/16 07:43:50;;;;;;;0.40;0.40;;;9.80;99.90;;;;;;5044662;28;20216;-92
2023/11/16 07:46:23;;;;;;;0.13;0.13;;;9.70;99.90;;;;;;5044913;28;20250;-94
2023/11/16 07:48:51;;;;;;;0.80;0.60;;;9.70;99.90;;;;;;5035719;28;20265;-94
2023/11/16 07:51:20;;;;;;;0.40;0.40;;;9.60;99.90;;;;;;5056823;28;20727;-94
2023/11/16 07:53:57;;;;;;;0.37;0.37;;;9.80;99.90;;;;;;5030426;28;20197;-94
2023/11/16 07:56:23;;;;;;;0.30;0.30;;;10.30;99.90;;;;;;5038147;28;20259;-93
2023/11/16 07:58:59;;;;;;;0.73;0.40;;;10.70;99.90;;;;;;5046410;28;20707;-95
2023/11/16 08:01:38;;;;;;;0.60;0.60;;;11.30;99.90;;;;;;5036918;28;21077;-91
2023/11/16 08:04:04;;;;;;;0.77;0.63;;;11.00;99.90;;;;;;5046084;28;20243;-95
2023/11/16 08:06:37;;;;;;;0.30;0.30;;;10.80;99.90;;;;;;5029703;28;20645;-94
2023/11/16 08:09:09;;;;;;;0.30;0.30;;;10.70;99.90;;;;;;5047261;28;20200;-94
2023/11/16 08:11:36;;;;;;;0.80;0.80;;;10.70;99.90;;;;;;5046718;28;20267;-93
2023/11/16 08:14:06;;;;;;;0.67;0.67;;;10.60;99.90;;;;;;5063808;28;20262;-95
2023/11/16 08:16:36;;;;;;;0.30;0.30;;;10.60;99.90;;;;;;5035792;28;20229;-93
2023/11/16 08:19:02;;;;;;;0.20;0.20;;;10.50;99.90;;;;;;5034628;28;21001;-88
2023/11/16 08:21:27;;;;;;;0.57;0.57;;;10.30;99.90;;;;;;5027829;28;20239;-90
2023/11/16 08:23:55;;;;;;;0.80;0.80;;;10.00;99.90;;;;;;5027999;28;20300;-89
2023/11/16 08:26:21;;;;;;;0.50;0.50;;;9.80;99.90;;;;;;5044009;28;20312;-89
2023/11/16 08:28:48;;;;;;;0.83;0.73;;;9.60;99.90;;;;;;5062983;28;20221;-89
2023/11/16 08:31:17;;;;;;;0.40;0.40;;;9.50;99.90;;;;;;5029182;28;20216;-89
2023/11/16 08:33:46;;;;;;;0.30;0.30;;;9.50;99.90;;;;;;5062222;28;20556;-88
2023/11/16 08:36:16;;;;;;;0.20;0.20;;;9.60;99.90;;;;;;5044656;28;20541;-89
2023/11/16 08:38:42;;;;;;;3.33;0.77;;;9.70;99.90;;;;;;5046074;28;20181;-89
2023/11/16 08:41:16;;;;;;;0.50;0.50;;;9.70;99.90;;;;;;5045269;28;20688;-89
2023/11/16 08:43:46;;;;;;;0.70;0.70;;;9.70;99.90;;;;;;5044049;28;20223;-89
2023/11/16 08:46:24;;;;;;;1.23;1.13;;;9.70;99.90;;;;;;5063677;28;20743;-88
2023/11/16 08:49:08;;;;;;;0.13;0.13;;;9.70;99.90;;;;;;5031303;28;20300;-89
2023/11/16 08:51:38;;;;;;;2.20;0.80;;;9.70;99.90;;;;;;5046276;28;20301;-89
2023/11/16 08:54:08;;;;;;;1.03;1.03;;;9.80;99.90;;;;;;5049407;28;20193;-89
2023/11/16 08:56:35;;;;;;;2.57;1.87;;;9.90;99.90;;;;;;5049152;28;20217;-88
2023/11/16 08:59:07;;;;;;;1.47;1.37;;;10.00;99.90;;;;;;5048957;28;20286;-89
2023/11/16 09:01:37;;;;;;;2.57;1.87;;;10.10;99.90;;;;;;5048650;28;20259;-89
2023/11/16 09:04:06;;;;;;;4.20;3.80;;;10.10;99.90;;;;;;5066983;28;20229;-89
2023/11/16 09:06:32;;;;;;;1.40;1.30;;;10.10;99.90;;;;;;5048711;28;20177;-90
2023/11/16 09:09:09;;;;;;;1.67;1.50;;;10.10;99.90;;;;;;5050121;28;20247;-89
2023/11/16 09:11:35;;;;;;;5.50;0.87;;;10.20;99.90;;;;;;5047651;28;20754;-89
2023/11/16 09:14:03;;;;;;;0.50;0.37;;;10.40;99.90;;;;;;5047902;28;20300;-89
2023/11/16 09:16:29;;;;;;;4.13;1.63;;;10.60;99.90;;;;;;5046808;28;20252;-89
2023/11/16 09:18:55;;;;;;;0.60;0.60;;;10.70;99.90;;;;;;5048413;28;20292;-89
2023/11/16 09:21:25;;;;;;;0.40;0.40;;;10.90;99.90;;;;;;5048853;28;20193;-89
2023/11/16 09:23:54;;;;;;;0.63;0.63;;;10.90;99.90;;;;;;5066694;28;20216;-88
2023/11/16 09:26:23;;;;;;;0.97;0.50;;;11.00;99.90;;;;;;5049045;28;20626;-89
2023/11/16 09:28:52;;;;;;;0.40;0.40;;;11.30;99.90;;;;;;5053603;28;20274;-89
2023/11/16 09:31:18;;;;;;;2.73;0.50;;;11.60;99.90;;;;;;5065541;28;20229;-88
2023/11/16 09:33:43;;;;;;;0.60;0.60;;;11.80;99.90;;;;;;5048122;28;20330;-89
2023/11/16 09:36:10;;;;;;;0.40;0.40;;;11.80;99.90;;;;;;5048608;28;20587;-89
2023/11/16 09:38:36;;;;;;;1.23;0.40;;;11.90;99.90;;;;;;5048690;28;20689;-89
2023/11/16 09:41:15;;;;;;;3.03;0.57;;;12.00;99.90;;;;;;5048378;28;20213;-88
2023/11/16 09:43:45;;;;;;;0.73;0.73;;;12.00;99.90;;;;;;5047894;28;20594;-89
2023/11/16 09:46:16;;;;;;;0.30;0.30;;;11.80;99.90;;;;;;5064238;28;20689;-89
2023/11/16 09:48:43;;;;;;;1.93;0.30;;;11.80;99.90;;;;;;5048025;28;20213;-90
2023/11/16 09:51:10;;;;;;;0.20;0.20;;;11.40;99.90;;;;;;5049212;28;20182;-90
2023/11/16 09:53:38;;;;;;;0.20;0.20;;;11.40;99.90;;;;;;5048171;28;20304;-90
2023/11/16 09:56:07;;;;;;;1.23;0.97;;;11.40;99.90;;;;;;5047642;28;20297;-89
2023/11/16 09:58:39;;;;;;;0.20;0.20;;;11.40;99.90;;;;;;5048550;28;20225;-90
2023/11/16 10:01:10;;;;;;;1.17;1.07;;;11.40;99.90;;;;;;5032411;28;20228;-89
2023/11/16 10:03:39;;;;;;;1.87;0.37;;;11.40;99.90;;;;;;5031560;28;20274;-88
2023/11/16 10:06:09;;;;;;;0.53;0.40;;;11.40;99.90;;;;;;5063729;28;20176;-88
2023/11/16 10:08:39;;;;;;;0.30;0.30;;;11.20;99.90;;;;;;5047935;28;20225;-88
2023/11/16 10:11:05;;;;;;;2.23;0.67;;;11.20;99.90;;;;;;5031291;28;20502;-88
2023/11/16 10:13:36;;;;;;;5.70;0.43;;;11.10;99.90;;;;;;5046082;28;20223;-89
2023/11/16 10:16:11;;;;;;;0.10;0.10;;;11.10;99.90;;;;;;5065327;28;20267;-88
2023/11/16 10:18:39;;;;;;;0.20;0.20;;;11.00;99.90;;;;;;5064458;28;20212;-88
2023/11/16 10:21:05;;;;;;;0.50;0.50;;;10.80;99.90;;;;;;5046265;28;20177;-88
2023/11/16 10:23:34;;;;;;;0.33;0.33;;;10.80;99.90;;;;;;5028914;28;20233;-88
2023/11/16 10:26:06;;;;;;;0.10;0.10;;;10.80;99.90;;;;;;5065004;28;20223;-90
2023/11/16 10:28:34;;;;;;;1.60;0.83;;;10.70;99.90;;;;;;5047277;28;20213;-88
2023/11/16 10:31:03;;;;;;;0.20;0.20;;;10.70;99.90;;;;;;5047201;28;20219;-88
2023/11/16 10:33:30;;;;;;;0.50;0.43;;;10.70;99.90;;;;;;5064405;28;20185;-87
2023/11/16 10:35:57;;;;;;;0.20;0.20;;;10.70;99.90;;;;;;5047005;28;20190;-88
2023/11/16 10:38:27;;;;;;;4.27;0.30;;;10.70;99.90;;;;;;5063550;28;20224;-89
2023/11/16 10:40:54;;;;;;;0.57;0.40;;;10.60;99.90;;;;;;5061687;28;20247;-89
2023/11/16 10:43:27;;;;;;;1.03;0.80;;;10.70;99.90;;;;;;5046934;28;20224;-88
2023/11/16 10:45:57;;;;;;;0.30;0.30;;;10.70;99.90;;;;;;5046382;28;20293;-89
2023/11/16 10:48:25;;;;;;;0.10;0.10;;;10.80;99.90;;;;;;5063526;28;20224;-89
2023/11/16 10:50:52;;;;;;;0.50;0.50;;;10.80;99.90;;;;;;5047207;28;20189;-88
2023/11/16 10:53:26;;;;;;;0.10;0.10;;;10.70;99.90;;;;;;5063897;28;20258;-90
2023/11/16 10:56:00;;;;;;;0.10;0.10;;;10.70;99.90;;;;;;5047253;28;20291;-89
2023/11/16 10:58:29;;;;;;;0.20;0.20;;;10.70;99.90;;;;;;5046613;28;20221;-89
2023/11/16 11:01:10;;;;;;;0.77;0.70;;;10.80;99.90;;;;;;5045673;28;20213;-90
2023/11/16 11:03:37;;;;;;;0.10;0.10;;;10.70;99.90;;;;;;5036994;28;20237;-90
2023/11/16 11:06:06;;;;;;;0.20;0.20;;;10.70;99.90;;;;;;5046401;28;20190;-89
2023/11/16 11:08:44;;;;;;;0.30;0.30;;;10.70;99.90;;;;;;5055743;28;20220;-89
2023/11/16 11:11:11;;;;;;;1.80;1.70;;;10.80;99.90;;;;;;5045527;28;20236;-89
2023/11/16 11:13:51;;;;;;;0.20;0.20;;;10.90;99.90;;;;;;5044935;28;20224;-89
2023/11/16 11:16:17;;;;;;;0.10;0.10;;;10.80;99.90;;;;;;5035953;28;20221;-90
2023/11/16 11:18:52;;;;;;;0.73;0.73;;;10.80;99.90;;;;;;5022495;28;20215;-88
2023/11/16 11:21:22;;;;;;;0.30;0.30;;;10.90;99.90;;;;;;5040247;28;20249;-89
2023/11/16 11:24:04;;;;;;;0.33;0.33;;;10.80;99.90;;;;;;5046556;28;20237;-89
2023/11/16 11:26:49;;;;;;;0.20;0.20;;;10.80;99.90;;;;;;5046532;28;20699;-89
2023/11/16 11:29:16;;;;;;;1.73;0.50;;;10.90;99.90;;;;;;5056493;28;20240;-88
2023/11/16 11:32:24;;;;;;;1.90;0.47;;;10.90;99.90;;;;;;5054047;28;20229;-89
2023/11/16 11:34:51;;;;;;;0.60;0.50;;;11.00;99.90;;;;;;5063350;28;20213;-88
2023/11/16 11:37:17;;;;;;;0.23;0.23;;;11.00;99.90;;;;;;5046927;28;20221;-88
2023/11/16 11:39:46;;;;;;;1.50;0.47;;;11.10;99.90;;;;;;5029315;28;20814;-88
2023/11/16 11:42:12;;;;;;;0.33;0.33;;;11.10;99.90;;;;;;5046369;28;20213;-88
2023/11/16 11:44:51;;;;;;;0.10;0.10;;;11.10;99.90;;;;;;5045710;28;20316;-88
2023/11/16 11:47:24;;;;;;;7.10;0.70;;;11.00;99.90;;;;;;5045059;28;20220;-88
2023/11/16 11:49:51;;;;;;;0.13;0.13;;;11.10;99.90;;;;;;5028621;28;20217;-88
2023/11/16 11:52:17;;;;;;;0.40;0.30;;;11.10;99.90;;;;;;5045162;28;20232;-88
2023/11/16 11:54:45;;;;;;;0.30;0.30;;;11.20;99.90;;;;;;5063020;28;20225;-90
2023/11/16 11:57:15;;;;;;;0.17;0.17;;;11.10;99.90;;;;;;5046644;28;20178;-88
2023/11/16 11:59:45;;;;;;;11.07;0.30;;;11.10;99.90;;;;;;5064406;28;20200;-89
2023/11/16 12:02:12;;;;;;;0.03;0.03;;;11.20;99.90;;;;;;5063158;28;20225;-88
2023/11/16 12:04:42;;;;;;;0.17;0.17;;;11.20;99.90;;;;;;5046029;28;20256;-89
2023/11/16 12:07:10;;;;;;;0.17;0.17;;;11.40;99.90;;;;;;5043651;28;20221;-89
2023/11/16 12:09:44;;;;;;;0.10;0.10;;;11.40;99.90;;;;;;5043084;28;20217;-89
2023/11/16 12:12:11;;;;;;;0.30;0.30;;;11.40;99.90;;;;;;5046261;28;20229;-88
2023/11/16 12:14:46;;;;;;;0.50;0.50;;;11.50;99.90;;;;;;5063166;28;20325;-91
2023/11/16 12:17:16;;;;;;;0.60;0.60;;;11.50;99.90;;;;;;5062918;28;20213;-89
2023/11/16 12:19:47;;;;;;;0.20;0.20;;;11.70;99.90;;;;;;5063667;28;21242;-88
2023/11/16 12:22:14;;;;;;;0.17;0.17;;;11.70;99.90;;;;;;5018508;28;20252;-89
2023/11/16 12:24:41;;;;;;;0.20;0.20;;;11.20;99.90;;;;;;5063123;28;20249;-88
2023/11/16 12:27:08;;;;;;;0.23;0.23;;;11.00;99.90;;;;;;5063415;28;20200;-88
2023/11/16 12:29:35;;;;;;;0.10;0.10;;;11.00;99.90;;;;;;5048765;28;20213;-89
2023/11/16 12:32:04;;;;;;;0.27;0.27;;;10.90;99.90;;;;;;5049227;28;20215;-88
2023/11/16 12:34:35;;;;;;;0.27;0.27;;;10.80;99.90;;;;;;5067206;28;20216;-87
2023/11/16 12:37:05;;;;;;;0.30;0.30;;;10.90;99.90;;;;;;5048573;28;20209;-89
2023/11/16 12:39:31;;;;;;;0.43;0.30;;;10.90;99.90;;;;;;5049694;28;20653;-88
2023/11/16 12:42:08;;;;;;;0.10;0.10;;;10.90;99.90;;;;;;5033308;28;20243;-88
2023/11/16 12:44:34;;;;;;;0.20;0.20;;;11.00;99.90;;;;;;5048989;28;20774;-87
2023/11/16 12:47:00;;;;;;;0.50;0.50;;;11.00;99.90;;;;;;5067089;28;20217;-89
2023/11/16 12:49:25;;;;;;;0.23;0.23;;;11.00;99.90;;;;;;5067406;28;20220;-89
2023/11/16 12:51:51;;;;;;;0.10;0.10;;;10.90;99.90;;;;;;5049640;28;21414;-88
2023/11/16 12:54:17;;;;;;;0.13;0.13;;;10.80;99.90;;;;;;5067415;28;20688;-89
2023/11/16 12:56:44;;;;;;;0.40;0.40;;;10.80;99.90;;;;;;5049431;28;20193;-88
2023/11/16 12:59:10;;;;;;;0.20;0.20;;;10.90;99.90;;;;;;5030059;28;20209;-88